Language selection

My Weather Profile Weather Topics  | 

Lake Nipigon: Past 24 Hour Conditions

 

Thunder Bay Airport

06:00 PM EST 05 February 2023
Disclaimer

This table is a summary of hourly weather conditions for the past 24 hours.
Please note that these observations might not always be representative of weather conditions over their associated marine area.

Date / Time
(EST)
Wind(knots) Conditions Visibility(km) Pressure(kPa) Air tempC) Relative humidity(%) Dew pointC) Wind Chill
05 February 2023
18:00 NW 5 Mostly Cloudy 32 101.9 -10 58 -17 -15
17:00 NW 6 Light Snow 32 101.8 -9 55 -16 -15
16:00 WNW 8 Light Snow 32 101.8 -9 55 -17 -16
15:00 W 6 Light Snow 32 101.7 -10 56 -17 -15
14:00 WNW 8 Mostly Cloudy 32 101.7 -10 57 -17 -17
13:00 NNW 7 Light Snow 32 101.7 -11 58 -18 -17
12:00 N 5 Light Snow 24 101.7 -12 60 -18 -17
11:00 NNW 4 Light Snow 13 101.6 -12 67 -17 -17
10:00 N 6 Cloudy 32 101.6 -12 67 -17 -18
9:00 NNE 2 Cloudy 32 101.5 -13 71 -17 -15
8:00 N 2 Cloudy 24 101.4 -13 71 -17 -15
7:00 NNE 5 Mostly Cloudy 24 101.4 -13 70 -17 -18
6:00 NNW 7 Mostly Cloudy 24 101.3 -12 70 -17 -19
5:00 NNE 4 Light Snow 16 101.2 -11 71 -15 -16
4:00 NNW 3 Light Snow 24 101.1 -10 78 -14 -14
3:00 calm Light Snow 16 101.1 -10 79 -13 *
2:00 N 1 Light Snow 13 101.1 -10 77 -14 -11
1:00 N 2 Light Snow 16 101.1 -10 76 -14 -12
0:00 ENE 3 Light Snow 19 101.1 -10 81 -13 -13
04 February 2023
23:00 N 1 Light Snow 19 101.1 -10 78 -13 -11
22:00 calm Light Snow 19 101.1 -10 81 -13 *
21:00 N 1 Light Snow 6 101.0 -10 82 -13 -12
20:00 N 2 Light Snow 2 101.0 -10 73 -14 -12
19:00 N 1 Cloudy 24 101.0 -9 59 -16 -10
18:00 calm Mostly Cloudy 24 100.9 -9 56 -17 *

Zoom-in to make a selection

Map of Great Lakes - Lake Superior marine weather areas Mid Superior - 45001 East Superior - 45004 West Superior - 45006 Slate Island - 45136 Lake Of the Woods - 45148 Kenora Airport Royal Island Armstrong Airport Caribou Island Marathon Airport Pukaskwa National Park Thunder Bay Airport Welcome Island Little Flatland Island Sault Ste. Marie Airport Wawa Airport
Legend:
buoy Buoy
land station Land Station

Great Lakes - Lake Superior Area

Another Region

What we are doing

Date modified: